Startpagina
METAR-TAF:

METAR-TAF

Vliegvelden :

Internationale luchthaven Juanda

Gerbangkertosusila, Indonesië

breedte: 07-22-47S, lengte: 112-47-13E, hoogte: 3 m

Actueel weer

Dit bericht is 45 minuten geleden gemaakt, om 03:30 UTC
Wind 5 kt uit het noordoosten
Temperatuur 31°C
Vochtigheid 71%
Druk 1012 hPa
Zicht: 8000 m
Weinig wolken op 2000 ft

METAR: WARR 130330Z 04005KT 8000 FEW020 31/25 Q1012 NOSIG

Tijdstip: 11:15 (04:15 UTC)

Verwachting

Dit bericht is 5 uur en het 15 minuten geleden gemaakt, om 23:00 UTC
Verwachting geldig van 13 om 00 UTC tot 14 om 00 UTC
Wind 10 kt uit het oosten
Zicht 10 km of meer
Weinig wolken op 2000 ft
Kans 40% :
Tijdelijke
van 13 om 10 UTC tot 13 om 13 UTC
Zicht: 5000 m
Verspreide wolken op 1800 ft, Cumulonimbus.
onweer, regen
Wijzigt naar
van 13 om 15 UTC tot 13 om 17 UTC
Wind 5 kt uit het westen
Zicht: 5000 m
Heiigheid,

TAF: WARR 122300Z 1300/1400 10010KT 9999 FEW020 PROB40 TEMPO 1310/1313 5000 TSRA SCT018CB BECMG 1315/1317 26005KT 5000 HZ

Waarnemingen en weersverwachtingen van meer dan 4000 vliegvelden (METAR en TAF).

De beschikbare stations zijn de gele en rode punten op de kaart.

Ga met uw muis naar het station om de naam te zien.

Klik dan om waarnemingen en weersverwachtingen te zien.

kaart wijzigen: klik op de groene knoppen met een zwart kruis om in te zoomen, op de groene knop met een streepje om uit te zoomen of op de groene pijlen voor aangrenzende kaarten.


METAR-TAF: